Time;durP1;ratioP1;P1;durP2;ratioP2;P2;SDS_P1;SDS_P2;PMS_P1;PMS_P2;Temp;Humidity;BMP_temperature;BMP_pressure;BME280_temperature;BME280_humidity;BME280_pressure;Samples;Min_cycle;Max_cycle;Signal;HPM_P1;HPM_P2
2023/01/05 00:01:27;;;;;;;27.20;4.13;;;10.70;99.90;;;;;;5032880;28;20213;-79
2023/01/05 00:03:53;;;;;;;24.15;3.50;;;10.60;99.90;;;;;;5032182;28;20184;-79
2023/01/05 00:06:18;;;;;;;28.75;3.80;;;10.60;99.90;;;;;;5046233;28;20266;-79
2023/01/05 00:08:45;;;;;;;24.88;4.20;;;10.60;99.90;;;;;;5031976;28;20239;-79
2023/01/05 00:22:33;;;;;;;23.33;4.07;;;10.60;99.90;;;;;;5034145;28;20269;-80
2023/01/05 00:25:06;;;;;;;25.25;4.45;;;10.50;99.90;;;;;;5064064;28;20195;-79
2023/01/05 00:27:32;;;;;;;25.30;4.05;;;10.50;99.90;;;;;;5029583;28;20187;-80
2023/01/05 00:29:59;;;;;;;29.25;4.13;;;10.50;99.90;;;;;;5031470;28;20512;-80
2023/01/05 00:32:26;;;;;;;27.67;4.05;;;10.50;99.90;;;;;;5064866;28;20179;-80
2023/01/05 00:34:56;;;;;;;25.33;4.55;;;10.50;99.90;;;;;;5031149;28;20275;-78
2023/01/05 00:37:23;;;;;;;24.95;3.90;;;10.50;99.90;;;;;;5031389;28;20183;-81
2023/01/05 00:39:50;;;;;;;24.40;4.55;;;10.50;99.90;;;;;;5014564;28;20272;-81
2023/01/05 00:42:16;;;;;;;25.40;4.38;;;10.50;99.90;;;;;;5062693;28;20349;-81
2023/01/05 00:44:42;;;;;;;28.15;5.03;;;10.50;99.90;;;;;;5047026;28;20659;-83
2023/01/05 00:47:07;;;;;;;25.80;4.43;;;10.50;99.90;;;;;;5034865;28;20262;-81
2023/01/05 00:49:33;;;;;;;25.15;4.45;;;10.50;99.90;;;;;;5033190;28;20191;-81
2023/01/05 00:52:01;;;;;;;25.95;4.53;;;10.50;99.90;;;;;;5051309;28;20184;-81
2023/01/05 00:54:27;;;;;;;28.08;4.35;;;10.50;99.90;;;;;;5035296;28;20183;-79
2023/01/05 00:56:52;;;;;;;23.63;5.00;;;10.40;99.90;;;;;;5066977;28;20298;-81
2023/01/05 00:59:18;;;;;;;33.95;4.93;;;10.50;99.90;;;;;;5050526;28;20264;-81
2023/01/05 01:01:45;;;;;;;34.42;5.15;;;10.50;99.90;;;;;;5067452;28;20211;-81
2023/01/05 01:04:12;;;;;;;25.63;4.82;;;10.50;99.90;;;;;;5032706;28;20200;-82
2023/01/05 01:06:38;;;;;;;26.73;5.15;;;10.50;99.90;;;;;;5024710;28;20823;-81
2023/01/05 01:09:03;;;;;;;25.95;4.53;;;10.50;99.90;;;;;;5050311;28;20679;-81
2023/01/05 01:11:30;;;;;;;20.05;4.00;;;10.50;99.90;;;;;;5022425;28;20207;-82
2023/01/05 01:13:55;;;;;;;27.02;4.60;;;10.50;99.90;;;;;;5034201;28;20628;-81
2023/01/05 01:16:23;;;;;;;31.63;4.90;;;10.50;99.90;;;;;;5018714;28;20188;-81
2023/01/05 01:18:49;;;;;;;28.35;4.20;;;10.50;99.90;;;;;;5049834;28;20192;-81
2023/01/05 01:21:15;;;;;;;31.17;5.35;;;10.50;99.90;;;;;;5034922;28;20307;-81
2023/01/05 01:23:41;;;;;;;23.50;4.53;;;10.50;99.90;;;;;;5035198;28;20278;-82
2023/01/05 01:26:09;;;;;;;29.15;4.40;;;10.50;99.90;;;;;;5050412;28;20239;-81
2023/01/05 01:28:35;;;;;;;34.42;4.28;;;10.50;99.90;;;;;;5041066;28;20188;-81
2023/01/05 01:31:01;;;;;;;23.13;3.90;;;10.50;99.90;;;;;;5034740;28;20716;-79
2023/01/05 01:33:27;;;;;;;29.10;3.83;;;10.50;99.90;;;;;;5066783;28;20671;-81
2023/01/05 01:35:54;;;;;;;29.70;4.07;;;10.50;99.90;;;;;;5033185;28;20184;-81
2023/01/05 01:38:19;;;;;;;35.58;4.53;;;10.50;99.90;;;;;;5046637;28;20172;-81
2023/01/05 01:40:48;;;;;;;32.90;4.15;;;10.50;99.90;;;;;;5066935;28;20184;-80
2023/01/05 01:43:34;;;;;;;26.95;4.07;;;10.50;99.90;;;;;;5037670;28;20176;-80
2023/01/05 01:46:01;;;;;;;35.25;4.53;;;10.50;99.90;;;;;;5067645;28;20232;-82
2023/01/05 01:48:26;;;;;;;27.25;4.03;;;10.50;99.90;;;;;;5031834;28;20314;-81
2023/01/05 01:50:55;;;;;;;27.90;3.97;;;10.60;99.90;;;;;;5018121;28;20192;-80
2023/01/05 01:53:28;;;;;;;22.80;3.65;;;10.60;99.90;;;;;;5049174;28;20176;-82
2023/01/05 01:55:58;;;;;;;28.73;4.15;;;10.60;99.90;;;;;;5034533;28;20180;-81
2023/01/05 01:58:27;;;;;;;26.80;4.70;;;10.60;99.90;;;;;;5031994;28;20216;-81
2023/01/05 02:00:53;;;;;;;29.35;4.00;;;10.60;99.90;;;;;;5049846;28;20188;-81
2023/01/05 02:03:19;;;;;;;28.77;3.75;;;10.60;99.90;;;;;;5033169;28;20216;-81
2023/01/05 02:05:45;;;;;;;19.38;3.80;;;10.60;99.90;;;;;;5027062;28;20235;-81
2023/01/05 02:08:13;;;;;;;24.50;3.63;;;10.60;99.90;;;;;;5039339;28;20713;-81
2023/01/05 02:11:04;;;;;;;20.98;3.72;;;10.60;99.90;;;;;;5045569;28;20187;-81
2023/01/05 02:13:51;;;;;;;24.58;3.92;;;10.60;99.90;;;;;;5030092;28;20211;-80
2023/01/05 02:16:29;;;;;;;30.63;3.63;;;10.60;99.90;;;;;;5035540;28;20267;-81
2023/01/05 02:19:16;;;;;;;32.90;4.60;;;10.60;99.90;;;;;;5033180;28;20187;-79
2023/01/05 02:21:53;;;;;;;23.02;3.95;;;10.60;99.90;;;;;;5048426;28;20258;-82
2023/01/05 02:24:53;;;;;;;20.02;3.28;;;10.60;99.90;;;;;;5034785;28;20221;-81
2023/01/05 02:27:43;;;;;;;22.98;3.85;;;10.60;99.90;;;;;;5049321;28;20521;-82
2023/01/05 02:30:58;;;;;;;18.88;3.35;;;10.60;99.90;;;;;;5041735;28;20187;-83
2023/01/05 02:33:40;;;;;;;25.75;3.45;;;10.60;99.90;;;;;;4972441;28;20268;-81
2023/01/05 02:36:37;;;;;;;24.05;4.00;;;10.60;99.90;;;;;;4989934;28;20185;-81
2023/01/05 02:39:22;;;;;;;28.67;3.60;;;10.60;99.90;;;;;;5034015;28;20200;-81
2023/01/05 02:42:07;;;;;;;24.80;4.40;;;10.60;99.90;;;;;;5038984;28;20208;-81
2023/01/05 02:44:34;;;;;;;31.20;3.80;;;10.60;99.90;;;;;;5059828;28;20193;-81
2023/01/05 02:47:04;;;;;;;26.70;3.47;;;10.60;99.90;;;;;;5065809;28;20612;-81
2023/01/05 02:49:35;;;;;;;28.15;4.70;;;10.60;99.90;;;;;;5048574;28;20616;-82
2023/01/05 02:52:04;;;;;;;26.88;3.78;;;10.60;99.90;;;;;;5033957;28;20643;-81
2023/01/05 02:54:40;;;;;;;26.30;4.75;;;10.60;99.90;;;;;;5065408;28;20187;-81
2023/01/05 02:57:12;;;;;;;35.97;4.45;;;10.60;99.90;;;;;;5049849;28;20183;-81
2023/01/05 02:59:48;;;;;;;22.77;3.50;;;10.60;99.90;;;;;;5064804;28;20238;-81
2023/01/05 03:02:17;;;;;;;27.05;4.28;;;10.60;99.90;;;;;;5031844;28;20559;-81
2023/01/05 03:05:06;;;;;;;29.60;3.92;;;10.60;99.90;;;;;;5067938;28;20213;-80
2023/01/05 03:07:36;;;;;;;24.67;4.00;;;10.60;99.90;;;;;;5037090;28;20184;-82
2023/01/05 03:13:40;;;;;;;19.55;3.22;;;10.50;99.90;;;;;;5031858;28;20176;-81
2023/01/05 03:15:42;;;;;;;34.88;4.82;;;10.60;99.90;;;;;;5043746;28;20177;-81
2023/01/05 03:18:16;;;;;;;23.25;3.88;;;10.60;99.90;;;;;;5021295;28;20189;-82
2023/01/05 03:20:50;;;;;;;24.95;4.28;;;10.60;99.90;;;;;;5048736;28;20176;-81
2023/01/05 03:37:52;;;;;;;23.08;4.35;;;10.60;99.90;;;;;;5047998;28;20204;-83
2023/01/05 03:40:27;;;;;;;27.25;4.20;;;10.50;99.90;;;;;;5049051;28;20175;-81
2023/01/05 03:42:54;;;;;;;24.10;3.75;;;10.60;99.90;;;;;;5030497;28;20265;-80
2023/01/05 03:45:22;;;;;;;28.40;3.90;;;10.60;99.90;;;;;;5044658;28;20187;-80
2023/01/05 03:47:49;;;;;;;41.05;4.80;;;10.60;99.90;;;;;;5055373;28;20531;-81
2023/01/05 03:50:16;;;;;;;25.65;4.85;;;10.60;99.90;;;;;;5032254;28;20190;-79
2023/01/05 03:52:42;;;;;;;26.73;4.15;;;10.60;99.90;;;;;;5032486;28;20275;-79
2023/01/05 03:55:08;;;;;;;32.88;4.20;;;10.60;99.90;;;;;;5011387;28;20670;-81
2023/01/05 03:57:34;;;;;;;29.38;3.85;;;10.60;99.90;;;;;;5031464;28;20186;-82
2023/01/05 04:00:00;;;;;;;31.33;4.38;;;10.60;99.90;;;;;;5032874;28;20270;-82
2023/01/05 04:02:26;;;;;;;27.40;4.10;;;10.60;99.90;;;;;;5021404;28;20307;-83
2023/01/05 04:04:52;;;;;;;34.88;4.68;;;10.50;99.90;;;;;;5028691;28;20578;-80
2023/01/05 04:07:20;;;;;;;24.77;3.55;;;10.60;99.90;;;;;;5067716;28;20237;-80
2023/01/05 04:09:47;;;;;;;32.08;4.40;;;10.60;99.90;;;;;;5037407;28;20334;-82
2023/01/05 04:12:13;;;;;;;29.00;4.35;;;10.60;99.90;;;;;;5036455;28;20635;-81
2023/01/05 04:14:42;;;;;;;31.60;4.38;;;10.60;99.90;;;;;;5050084;28;20189;-81
2023/01/05 04:17:07;;;;;;;25.05;3.80;;;10.60;99.90;;;;;;5019836;28;20188;-82
2023/01/05 04:19:33;;;;;;;27.67;4.40;;;10.60;99.90;;;;;;5013573;28;20184;-81
2023/01/05 04:22:00;;;;;;;24.38;3.83;;;10.60;99.90;;;;;;5024285;28;20215;-81
2023/01/05 04:24:27;;;;;;;22.98;4.30;;;10.60;99.90;;;;;;5050212;28;20202;-81
2023/01/05 04:26:53;;;;;;;20.95;3.85;;;10.60;99.90;;;;;;5014058;28;20183;-81
2023/01/05 04:29:22;;;;;;;28.17;4.60;;;10.60;99.90;;;;;;5062244;28;20282;-80
2023/01/05 04:31:49;;;;;;;27.90;4.32;;;10.60;99.90;;;;;;5036378;28;20188;-81
2023/01/05 04:34:17;;;;;;;24.45;3.85;;;10.60;99.90;;;;;;5042643;28;20261;-81
2023/01/05 04:36:46;;;;;;;23.38;4.07;;;10.60;99.90;;;;;;5046676;28;20709;-82
2023/01/05 04:39:15;;;;;;;27.00;4.15;;;10.50;99.90;;;;;;5061911;28;20180;-80
2023/01/05 04:41:41;;;;;;;31.75;4.90;;;10.60;99.90;;;;;;5031000;28;20683;-81
2023/01/05 04:44:07;;;;;;;28.65;4.22;;;10.60;99.90;;;;;;5063372;28;20184;-81
2023/01/05 04:46:34;;;;;;;33.30;4.00;;;10.60;99.90;;;;;;5048060;28;20598;-81
2023/01/05 04:49:00;;;;;;;28.15;4.13;;;10.60;99.90;;;;;;5028058;28;20192;-82
2023/01/05 04:51:26;;;;;;;30.55;4.40;;;10.60;99.90;;;;;;5042326;28;20187;-85
2023/01/05 04:53:52;;;;;;;21.33;3.53;;;10.60;99.90;;;;;;5063519;28;20192;-80
2023/01/05 04:56:21;;;;;;;25.25;4.18;;;10.60;99.90;;;;;;5047656;28;20192;-81
2023/01/05 04:58:48;;;;;;;23.08;3.65;;;10.60;99.90;;;;;;5024817;28;20275;-81
2023/01/05 05:01:14;;;;;;;21.08;3.80;;;10.60;99.90;;;;;;5031278;28;20298;-81
2023/01/05 05:03:41;;;;;;;29.20;4.28;;;10.60;99.90;;;;;;5029841;28;20187;-81
2023/01/05 05:06:11;;;;;;;28.00;4.78;;;10.60;99.90;;;;;;5030116;28;20287;-81
2023/01/05 05:08:37;;;;;;;27.63;4.47;;;10.60;99.90;;;;;;5009299;28;20302;-81
2023/01/05 05:11:05;;;;;;;21.52;3.30;;;10.60;99.90;;;;;;5027220;28;20196;-80
2023/01/05 05:13:34;;;;;;;34.58;4.32;;;10.60;99.90;;;;;;5027071;28;20589;-81
2023/01/05 05:16:01;;;;;;;37.28;5.10;;;10.60;99.90;;;;;;5043457;28;20190;-80
2023/01/05 05:18:28;;;;;;;28.45;4.18;;;10.60;99.90;;;;;;5039169;28;20279;-80
2023/01/05 05:20:55;;;;;;;27.42;4.28;;;10.60;99.90;;;;;;5044114;28;20278;-81
2023/01/05 05:23:25;;;;;;;26.40;4.35;;;10.60;99.90;;;;;;5013822;28;20624;-81
2023/01/05 05:25:52;;;;;;;25.95;4.07;;;10.60;99.90;;;;;;5014539;28;20184;-81
2023/01/05 05:28:20;;;;;;;30.50;4.80;;;10.60;99.90;;;;;;5028091;28;20180;-80
2023/01/05 05:30:48;;;;;;;26.75;3.97;;;10.60;99.90;;;;;;5030028;28;20238;-81
2023/01/05 05:33:14;;;;;;;26.45;4.53;;;10.60;99.90;;;;;;5046357;28;20287;-81
2023/01/05 05:35:40;;;;;;;21.92;3.92;;;10.60;99.90;;;;;;5036185;28;20672;-80
2023/01/05 05:38:06;;;;;;;26.63;4.20;;;10.60;99.90;;;;;;5049896;28;20238;-81
2023/01/05 05:40:31;;;;;;;26.73;3.90;;;10.60;99.90;;;;;;5067297;28;20644;-80
2023/01/05 05:42:57;;;;;;;23.70;4.18;;;10.60;99.90;;;;;;5017245;28;20270;-81
2023/01/05 05:45:23;;;;;;;19.65;3.90;;;10.60;99.90;;;;;;5018436;28;20747;-81
2023/01/05 05:47:49;;;;;;;28.30;4.25;;;10.50;99.90;;;;;;5034574;28;20187;-80
2023/01/05 05:50:14;;;;;;;29.25;4.22;;;10.60;99.90;;;;;;5035579;28;20267;-81
2023/01/05 05:52:40;;;;;;;29.38;5.00;;;10.60;99.90;;;;;;5032539;28;20521;-81
2023/01/05 05:55:06;;;;;;;18.13;3.50;;;10.60;99.90;;;;;;5017841;28;20188;-81
2023/01/05 05:57:32;;;;;;;29.92;4.45;;;10.60;99.90;;;;;;5048672;28;20179;-80
2023/01/05 05:59:58;;;;;;;23.40;4.32;;;10.60;99.90;;;;;;5044258;28;20189;-80
2023/01/05 06:02:24;;;;;;;29.60;4.60;;;10.60;99.90;;;;;;5060616;28;20223;-81
2023/01/05 06:04:49;;;;;;;26.20;4.25;;;10.60;99.90;;;;;;5039051;28;20598;-81
2023/01/05 06:07:15;;;;;;;36.22;5.00;;;10.50;99.90;;;;;;5077575;28;20188;-80
2023/01/05 06:09:41;;;;;;;27.92;4.78;;;10.60;99.90;;;;;;5066539;28;20281;-80
2023/01/05 06:12:06;;;;;;;27.60;3.85;;;10.60;99.90;;;;;;5041719;28;20207;-79
2023/01/05 06:14:32;;;;;;;30.90;4.57;;;10.50;99.90;;;;;;5060867;28;20610;-80
2023/01/05 06:16:59;;;;;;;31.30;4.10;;;10.50;99.90;;;;;;5046117;28;20546;-81
2023/01/05 06:19:25;;;;;;;32.78;4.30;;;10.50;99.90;;;;;;5033805;28;20628;-78
2023/01/05 06:21:50;;;;;;;28.88;4.22;;;10.50;99.90;;;;;;5036141;28;20228;-78
2023/01/05 06:24:16;;;;;;;28.25;4.60;;;10.50;99.90;;;;;;5021616;28;20185;-80
2023/01/05 06:26:42;;;;;;;22.33;3.72;;;10.50;99.90;;;;;;5046706;28;20200;-79
2023/01/05 06:29:08;;;;;;;29.15;4.28;;;10.50;99.90;;;;;;5063088;28;20195;-80
2023/01/05 06:31:33;;;;;;;24.15;4.47;;;10.50;99.90;;;;;;5049253;28;20570;-80
2023/01/05 06:33:59;;;;;;;21.65;4.13;;;10.50;99.90;;;;;;5034221;28;20196;-80
2023/01/05 06:36:25;;;;;;;34.35;4.50;;;10.50;99.90;;;;;;5017224;28;20601;-80
2023/01/05 06:38:51;;;;;;;21.35;3.97;;;10.50;99.90;;;;;;5065867;28;20598;-79
2023/01/05 06:41:16;;;;;;;21.98;3.88;;;10.40;99.90;;;;;;5035121;28;20258;-79
2023/01/05 06:43:42;;;;;;;25.27;4.10;;;10.40;99.90;;;;;;5033239;28;20234;-81
2023/01/05 06:46:08;;;;;;;27.73;4.28;;;10.40;99.90;;;;;;5049259;28;20723;-80
2023/01/05 06:48:33;;;;;;;19.70;3.95;;;10.40;99.90;;;;;;5048131;28;20198;-79
2023/01/05 06:50:59;;;;;;;27.35;4.43;;;10.40;99.90;;;;;;5031859;28;20217;-79
2023/01/05 06:53:25;;;;;;;32.70;4.32;;;10.40;99.90;;;;;;5031917;28;20623;-80
2023/01/05 06:55:51;;;;;;;26.90;4.35;;;10.40;99.90;;;;;;5049061;28;20203;-80
2023/01/05 06:58:16;;;;;;;26.65;4.05;;;10.40;99.90;;;;;;5041221;28;20235;-81
2023/01/05 07:00:42;;;;;;;31.58;4.78;;;10.40;99.90;;;;;;5034091;28;20191;-80
2023/01/05 07:03:12;;;;;;;34.25;4.55;;;10.40;99.90;;;;;;5032446;28;20215;-79
2023/01/05 07:05:39;;;;;;;24.02;4.28;;;10.40;99.90;;;;;;5036266;28;20164;-80
2023/01/05 07:08:05;;;;;;;29.48;4.15;;;10.30;99.90;;;;;;5064063;28;20675;-80
2023/01/05 07:10:31;;;;;;;24.80;4.70;;;10.40;99.90;;;;;;5065207;28;20206;-79
2023/01/05 07:12:57;;;;;;;30.88;4.55;;;10.40;99.90;;;;;;5031379;28;20690;-78
2023/01/05 07:15:22;;;;;;;32.00;4.70;;;10.40;99.90;;;;;;5033070;28;20203;-79
2023/01/05 07:17:48;;;;;;;32.28;4.80;;;10.40;99.90;;;;;;5015158;28;20195;-79
2023/01/05 07:20:14;;;;;;;33.28;4.82;;;10.40;99.90;;;;;;5065720;28;20176;-79
2023/01/05 07:22:40;;;;;;;31.88;4.43;;;10.40;99.90;;;;;;5039438;28;20215;-78
2023/01/05 07:25:06;;;;;;;22.08;4.25;;;10.40;99.90;;;;;;5039778;28;20190;-79
2023/01/05 07:27:32;;;;;;;31.77;4.82;;;10.40;99.90;;;;;;5026623;28;20644;-78
2023/01/05 07:29:57;;;;;;;28.02;4.50;;;10.40;99.90;;;;;;5033681;28;20190;-79
2023/01/05 07:32:23;;;;;;;23.90;3.70;;;10.40;99.90;;;;;;5030777;28;20581;-79
2023/01/05 07:34:49;;;;;;;25.48;4.05;;;10.40;99.90;;;;;;5031487;28;20184;-80
2023/01/05 07:37:15;;;;;;;26.10;3.85;;;10.40;99.90;;;;;;5044080;28;20266;-81
2023/01/05 07:39:40;;;;;;;32.67;4.43;;;10.40;99.90;;;;;;5039270;28;20195;-79
2023/01/05 07:42:06;;;;;;;26.55;4.22;;;10.40;99.90;;;;;;5044728;28;20269;-79
2023/01/05 07:44:32;;;;;;;30.38;4.97;;;10.40;99.90;;;;;;5031224;28;20257;-80
2023/01/05 07:46:59;;;;;;;31.90;4.40;;;10.40;99.90;;;;;;5031189;28;20183;-80
2023/01/05 07:49:25;;;;;;;31.25;4.00;;;10.40;99.90;;;;;;5033258;28;20270;-80
2023/01/05 07:51:50;;;;;;;36.10;5.40;;;10.40;99.90;;;;;;5015637;28;20680;-81
2023/01/05 07:54:16;;;;;;;34.25;5.03;;;10.40;99.90;;;;;;5014062;28;20187;-80
2023/01/05 07:56:42;;;;;;;29.40;4.22;;;10.40;99.90;;;;;;5032087;28;20759;-81
2023/01/05 07:59:08;;;;;;;23.83;4.13;;;10.40;99.90;;;;;;5059250;28;20193;-80
2023/01/05 08:01:33;;;;;;;29.58;4.53;;;10.40;99.90;;;;;;5047983;28;20219;-80
2023/01/05 08:03:59;;;;;;;22.40;3.88;;;10.40;99.90;;;;;;5030455;28;20582;-81
2023/01/05 08:06:25;;;;;;;26.85;3.97;;;10.40;99.90;;;;;;5047638;28;20186;-80
2023/01/05 08:08:50;;;;;;;29.25;4.53;;;10.40;99.90;;;;;;5013895;28;20236;-81
2023/01/05 08:11:19;;;;;;;22.25;4.05;;;10.40;99.90;;;;;;5015322;28;20528;-82
2023/01/05 08:14:03;;;;;;;28.83;4.47;;;10.40;99.90;;;;;;5030177;28;20604;-80
2023/01/05 08:16:31;;;;;;;24.10;3.92;;;10.40;99.90;;;;;;5032861;28;20191;-80
2023/01/05 08:18:57;;;;;;;26.52;3.90;;;10.40;99.90;;;;;;5032546;28;20188;-78
2023/01/05 08:21:23;;;;;;;29.98;4.35;;;10.40;99.90;;;;;;5064324;28;20207;-80
2023/01/05 08:23:51;;;;;;;26.75;3.88;;;10.50;99.90;;;;;;5031213;28;20197;-80
2023/01/05 08:26:20;;;;;;;24.73;4.10;;;10.40;99.90;;;;;;5025319;28;20183;-81
2023/01/05 08:28:45;;;;;;;21.45;3.83;;;10.50;99.90;;;;;;5081991;28;20164;-81
2023/01/05 08:31:18;;;;;;;23.92;3.80;;;10.50;99.90;;;;;;5020137;28;20190;-81
2023/01/05 08:33:45;;;;;;;27.40;4.30;;;10.50;99.90;;;;;;5027820;28;20529;-81
2023/01/05 08:36:13;;;;;;;23.73;3.50;;;10.50;99.90;;;;;;5059123;28;20191;-80
2023/01/05 08:38:46;;;;;;;22.02;4.35;;;10.50;99.90;;;;;;5030960;28;20282;-84
2023/01/05 08:41:15;;;;;;;30.40;3.85;;;10.50;99.90;;;;;;5014251;28;20223;-81
2023/01/05 08:43:41;;;;;;;27.48;4.05;;;10.50;99.90;;;;;;5028288;28;20181;-81
2023/01/05 08:46:07;;;;;;;28.48;4.20;;;10.50;99.90;;;;;;5045202;28;20658;-79
2023/01/05 08:48:32;;;;;;;20.27;3.33;;;10.50;99.90;;;;;;5047410;28;20192;-81
2023/01/05 08:51:05;;;;;;;28.13;3.80;;;10.50;99.90;;;;;;5060992;28;20195;-81
2023/01/05 08:53:30;;;;;;;27.88;4.00;;;10.50;99.90;;;;;;5046633;28;20209;-80
2023/01/05 08:55:56;;;;;;;29.27;4.22;;;10.50;99.90;;;;;;5015462;28;20628;-82
2023/01/05 08:58:22;;;;;;;25.00;3.90;;;10.50;99.90;;;;;;5013021;28;20195;-81
2023/01/05 09:00:48;;;;;;;27.88;3.78;;;10.50;99.90;;;;;;5013920;28;20648;-82
2023/01/05 09:03:13;;;;;;;21.77;4.15;;;10.50;99.90;;;;;;5031105;28;20208;-80
2023/01/05 09:05:39;;;;;;;31.15;4.30;;;10.60;99.90;;;;;;5032350;28;20308;-80
2023/01/05 09:08:05;;;;;;;31.55;4.97;;;10.50;99.90;;;;;;5038097;28;20184;-81
2023/01/05 09:10:31;;;;;;;29.33;4.43;;;10.50;99.90;;;;;;5012576;28;20701;-80
2023/01/05 09:12:56;;;;;;;25.92;4.53;;;10.50;99.90;;;;;;5022174;28;20651;-81
2023/01/05 09:15:22;;;;;;;34.78;4.82;;;10.60;99.90;;;;;;5033197;28;20203;-80
2023/01/05 09:17:48;;;;;;;24.30;3.45;;;10.50;99.90;;;;;;5050349;28;20397;-80
2023/01/05 09:20:14;;;;;;;25.67;3.75;;;10.50;99.90;;;;;;5021659;28;20179;-81
2023/01/05 09:22:39;;;;;;;18.45;3.17;;;10.50;99.90;;;;;;5033579;28;20582;-81
2023/01/05 09:25:05;;;;;;;15.70;3.65;;;10.50;99.90;;;;;;5051034;28;20176;-81
2023/01/05 09:27:31;;;;;;;24.27;3.47;;;10.40;99.90;;;;;;5052033;28;20175;-81
2023/01/05 09:29:57;;;;;;;17.95;3.40;;;10.40;99.90;;;;;;5041678;28;20673;-80
2023/01/05 09:32:23;;;;;;;22.42;3.58;;;10.40;99.90;;;;;;5045815;28;20241;-81
2023/01/05 09:34:49;;;;;;;26.80;3.45;;;10.50;99.90;;;;;;5030531;28;20188;-80
2023/01/05 09:37:14;;;;;;;17.58;3.50;;;10.50;99.90;;;;;;5037382;28;20660;-79
2023/01/05 09:39:40;;;;;;;23.40;3.25;;;10.50;99.90;;;;;;5031418;28;20579;-82
2023/01/05 09:42:12;;;;;;;19.88;3.15;;;10.50;99.90;;;;;;5048644;28;20307;-82
2023/01/05 09:44:40;;;;;;;17.42;2.88;;;10.50;99.90;;;;;;5032901;28;20604;-81
2023/01/05 09:47:28;;;;;;;20.27;2.85;;;10.50;99.90;;;;;;5050307;28;20203;-82
2023/01/05 09:49:56;;;;;;;17.23;2.53;;;10.50;99.90;;;;;;5026556;28;20644;-83
2023/01/05 09:52:23;;;;;;;15.52;2.42;;;10.50;99.90;;;;;;5031621;28;20710;-81
2023/01/05 09:54:49;;;;;;;26.15;2.70;;;10.50;99.90;;;;;;5023837;28;20202;-81
2023/01/05 09:57:18;;;;;;;17.65;3.05;;;10.50;99.90;;;;;;5049749;28;20184;-83
2023/01/05 09:59:47;;;;;;;20.48;3.10;;;10.50;99.90;;;;;;5030628;28;21281;-82
2023/01/05 10:02:42;;;;;;;23.15;3.30;;;10.60;99.90;;;;;;5033756;28;20199;-82
2023/01/05 10:05:12;;;;;;;19.35;2.95;;;10.50;99.90;;;;;;5028564;28;20190;-82
2023/01/05 10:07:59;;;;;;;17.63;2.85;;;10.50;99.90;;;;;;5065025;28;20200;-84
2023/01/05 10:13:39;;;;;;;11.20;2.30;;;10.60;99.90;;;;;;5003768;28;20185;-80
2023/01/05 10:16:05;;;;;;;21.50;3.10;;;10.60;99.90;;;;;;5046161;28;20187;-83
2023/01/05 10:18:33;;;;;;;14.25;2.75;;;10.60;99.90;;;;;;5049150;28;20207;-79
2023/01/05 10:21:04;;;;;;;20.85;2.85;;;10.60;99.90;;;;;;5032772;28;20192;-79
2023/01/05 10:24:04;;;;;;;22.58;2.75;;;10.60;99.90;;;;;;5050350;28;20245;-83
2023/01/05 10:26:36;;;;;;;17.67;2.70;;;10.60;99.90;;;;;;5046236;28;20239;-80
2023/01/05 10:29:08;;;;;;;15.13;2.45;;;10.60;99.90;;;;;;5067541;28;20192;-80
2023/01/05 10:31:46;;;;;;;25.73;3.08;;;10.60;99.90;;;;;;5034775;28;20589;-80
2023/01/05 10:34:49;;;;;;;21.55;3.00;;;10.60;99.90;;;;;;5037851;28;20188;-80
2023/01/05 10:37:33;;;;;;;20.05;3.55;;;10.60;99.90;;;;;;5045968;28;20218;-80
2023/01/05 10:40:26;;;;;;;22.42;3.60;;;10.60;99.90;;;;;;5054517;28;20211;-81
2023/01/05 10:43:09;;;;;;;25.05;3.20;;;10.60;99.90;;;;;;5033469;28;20208;-80
2023/01/05 10:45:36;;;;;;;25.38;3.65;;;10.60;99.90;;;;;;5048285;28;20175;-80
2023/01/05 10:48:02;;;;;;;23.27;3.90;;;10.60;99.90;;;;;;5034423;28;20180;-79
2023/01/05 10:50:41;;;;;;;23.15;3.30;;;10.60;99.90;;;;;;5032705;28;20230;-80
2023/01/05 10:53:08;;;;;;;16.00;2.80;;;10.70;99.90;;;;;;5032205;28;20539;-80
2023/01/05 10:55:53;;;;;;;18.17;3.08;;;10.70;99.90;;;;;;5034345;28;20180;-80
2023/01/05 10:58:39;;;;;;;14.90;3.08;;;10.70;99.90;;;;;;5031585;28;20176;-81
2023/01/05 11:01:18;;;;;;;14.50;2.60;;;10.80;99.90;;;;;;5066438;28;20539;-80
2023/01/05 11:03:46;;;;;;;10.20;1.88;;;10.80;99.90;;;;;;5031651;28;20180;-80
2023/01/05 11:06:21;;;;;;;13.40;2.28;;;10.90;99.90;;;;;;5042200;28;20180;-80
2023/01/05 11:08:47;;;;;;;11.25;2.65;;;11.00;99.90;;;;;;5028820;28;20223;-80
2023/01/05 11:11:24;;;;;;;12.23;2.20;;;11.00;99.90;;;;;;5065890;28;20227;-80
2023/01/05 11:13:53;;;;;;;11.48;2.40;;;11.10;99.90;;;;;;5031934;28;20243;-80
2023/01/05 11:16:25;;;;;;;13.05;2.10;;;11.10;99.90;;;;;;5031716;28;20180;-80
2023/01/05 11:18:58;;;;;;;14.13;2.97;;;11.20;99.90;;;;;;5030402;28;20533;-81
2023/01/05 11:21:43;;;;;;;13.38;2.70;;;11.20;99.90;;;;;;5026582;28;20219;-81
2023/01/05 11:24:24;;;;;;;18.08;2.70;;;11.20;99.90;;;;;;5025084;28;20191;-80
2023/01/05 11:26:55;;;;;;;11.95;2.72;;;11.20;99.90;;;;;;5048376;28;20191;-80
2023/01/05 11:29:23;;;;;;;15.02;2.72;;;11.30;99.90;;;;;;5030688;28;20179;-80
2023/01/05 11:32:01;;;;;;;18.58;2.67;;;11.20;99.90;;;;;;5014649;28;20234;-80
2023/01/05 11:34:44;;;;;;;12.85;2.75;;;11.20;99.90;;;;;;5033789;28;20179;-80
2023/01/05 11:37:10;;;;;;;22.77;3.38;;;11.20;99.90;;;;;;5032467;28;20184;-80
2023/01/05 11:39:45;;;;;;;18.00;2.78;;;11.10;99.90;;;;;;5059613;28;20506;-80
2023/01/05 11:42:42;;;;;;;30.67;3.58;;;11.20;99.90;;;;;;5029015;28;20219;-80
2023/01/05 11:45:23;;;;;;;27.23;3.55;;;11.10;99.90;;;;;;5029091;28;20274;-80
2023/01/05 11:47:59;;;;;;;26.13;3.40;;;11.10;99.90;;;;;;5055146;28;20187;-80
2023/01/05 11:50:27;;;;;;;25.45;3.50;;;11.00;99.90;;;;;;5032184;28;20180;-80
2023/01/05 11:52:56;;;;;;;20.73;3.70;;;11.00;99.90;;;;;;5031056;28;20238;-80
2023/01/05 11:55:30;;;;;;;29.67;4.05;;;11.00;99.90;;;;;;5032890;28;20207;-80
2023/01/05 11:58:40;;;;;;;15.70;3.33;;;11.00;99.90;;;;;;5064048;28;20302;-80
2023/01/05 12:01:40;;;;;;;24.02;3.88;;;11.00;99.90;;;;;;4970999;28;20186;-80
2023/01/05 12:04:29;;;;;;;18.67;2.78;;;11.00;99.90;;;;;;4970547;28;20196;-80
2023/01/05 12:07:04;;;;;;;18.13;3.53;;;11.00;99.90;;;;;;5005114;28;20488;-80
2023/01/05 12:09:32;;;;;;;21.75;3.20;;;10.90;99.90;;;;;;5042455;28;20227;-80
2023/01/05 12:12:40;;;;;;;29.70;3.88;;;10.90;99.90;;;;;;5065009;28;20753;-80
2023/01/05 12:15:37;;;;;;;24.83;3.30;;;11.00;99.90;;;;;;4975785;28;20193;-80
2023/01/05 12:18:27;;;;;;;26.00;3.65;;;11.00;99.90;;;;;;5020429;28;20501;-81
2023/01/05 12:21:21;;;;;;;21.10;3.40;;;11.00;99.90;;;;;;5038187;28;20258;-79
2023/01/05 12:24:21;;;;;;;17.38;3.05;;;11.00;99.90;;;;;;5032191;28;20194;-80
2023/01/05 12:27:25;;;;;;;23.75;3.63;;;11.10;99.90;;;;;;5037992;28;20187;-80
2023/01/05 12:30:24;;;;;;;17.98;3.20;;;11.10;99.90;;;;;;4991422;28;20200;-78
2023/01/05 12:32:50;;;;;;;13.95;3.10;;;11.20;99.90;;;;;;5018731;28;20184;-80
2023/01/05 12:35:24;;;;;;;18.15;3.05;;;11.30;99.90;;;;;;5057770;28;20231;-79
2023/01/05 12:38:10;;;;;;;20.77;3.40;;;11.30;99.90;;;;;;5032852;28;20663;-79
2023/01/05 12:40:59;;;;;;;20.42;3.20;;;11.30;99.90;;;;;;5059059;28;20640;-79
2023/01/05 12:43:49;;;;;;;15.20;2.97;;;11.30;99.90;;;;;;5037846;28;20246;-81
2023/01/05 12:46:36;;;;;;;11.77;2.28;;;11.30;99.90;;;;;;5044497;28;20179;-79
2023/01/05 12:49:07;;;;;;;19.23;2.92;;;11.30;99.90;;;;;;5031961;28;20184;-80
2023/01/05 12:52:14;;;;;;;13.57;3.08;;;11.30;99.90;;;;;;5030694;28;20184;-81
2023/01/05 12:55:01;;;;;;;21.55;2.95;;;11.20;99.90;;;;;;5036780;28;20191;-79
2023/01/05 12:57:34;;;;;;;20.63;2.75;;;11.20;99.90;;;;;;5031342;28;20168;-80
2023/01/05 13:00:11;;;;;;;20.42;2.72;;;11.20;99.90;;;;;;5027545;28;20207;-78
2023/01/05 13:03:01;;;;;;;18.55;3.60;;;11.20;99.90;;;;;;5013686;28;20207;-79
2023/01/05 13:05:59;;;;;;;17.73;2.95;;;11.20;99.90;;;;;;5039500;28;20286;-79
2023/01/05 13:08:39;;;;;;;14.13;4.30;;;11.20;99.90;;;;;;5009029;28;20207;-79
2023/01/05 13:11:21;;;;;;;19.83;3.17;;;11.20;99.90;;;;;;5013056;28;20679;-80
2023/01/05 13:13:52;;;;;;;18.83;3.38;;;11.20;99.90;;;;;;5055579;28;20256;-82
2023/01/05 13:16:26;;;;;;;15.95;3.42;;;11.20;99.90;;;;;;5051515;28;20660;-79
2023/01/05 13:18:58;;;;;;;18.48;3.35;;;11.20;99.90;;;;;;5023120;28;20187;-79
2023/01/05 13:21:26;;;;;;;14.95;2.92;;;11.20;99.90;;;;;;5047739;28;20210;-79
2023/01/05 13:23:58;;;;;;;17.33;2.70;;;11.20;99.90;;;;;;5030297;28;20212;-78
2023/01/05 13:26:24;;;;;;;14.55;3.10;;;11.20;99.90;;;;;;5029789;28;20198;-78
2023/01/05 13:28:56;;;;;;;19.20;3.63;;;11.30;99.90;;;;;;5029714;28;20188;-78